Time;durP1;ratioP1;P1;durP2;ratioP2;P2;SDS_P1;SDS_P2;PMS_P1;PMS_P2;Temp;Humidity;BMP_temperature;BMP_pressure;BME280_temperature;BME280_humidity;BME280_pressure;Samples;Min_cycle;Max_cycle;Signal;HPM_P1;HPM_P2
2023/12/07 00:01:37;;;;;;;2.15;0.77;;;2.40;99.90;;;;;;5015132;28;20501;-75
2023/12/07 00:04:03;;;;;;;1.92;1.35;;;2.40;99.90;;;;;;5025851;28;20160;-75
2023/12/07 00:06:29;;;;;;;2.20;1.17;;;2.40;99.90;;;;;;5027354;28;20045;-75
2023/12/07 00:08:55;;;;;;;1.33;1.10;;;2.30;99.90;;;;;;5026484;28;20049;-75
2023/12/07 00:11:24;;;;;;;1.58;0.98;;;2.30;99.90;;;;;;5022340;28;20062;-75
2023/12/07 00:13:50;;;;;;;1.00;0.88;;;2.20;99.90;;;;;;5023268;28;20038;-75
2023/12/07 00:16:15;;;;;;;1.35;1.20;;;2.30;99.90;;;;;;5021910;28;20045;-75
2023/12/07 00:18:41;;;;;;;1.73;1.42;;;2.20;99.90;;;;;;5008642;28;20064;-75
2023/12/07 00:21:10;;;;;;;1.85;1.13;;;2.20;99.90;;;;;;5024427;28;20045;-75
2023/12/07 00:23:37;;;;;;;2.38;1.25;;;2.10;99.90;;;;;;5026010;28;20041;-74
2023/12/07 00:26:04;;;;;;;2.20;1.45;;;2.00;99.90;;;;;;5025481;28;20041;-75
2023/12/07 00:28:29;;;;;;;1.55;1.05;;;2.00;99.90;;;;;;5024330;28;20090;-74
2023/12/07 00:30:55;;;;;;;1.48;1.20;;;2.00;99.90;;;;;;5009473;28;20524;-74
2023/12/07 00:33:21;;;;;;;1.30;1.13;;;2.00;99.90;;;;;;5021539;28;20040;-74
2023/12/07 00:35:47;;;;;;;2.28;1.38;;;1.90;99.90;;;;;;5027846;28;20116;-74
2023/12/07 00:38:13;;;;;;;2.20;1.48;;;2.00;99.90;;;;;;5020456;28;20242;-74
2023/12/07 00:40:39;;;;;;;1.90;1.42;;;2.00;99.90;;;;;;5005768;28;20450;-74
2023/12/07 00:43:07;;;;;;;1.63;1.10;;;2.00;99.90;;;;;;5019463;28;20049;-74
2023/12/07 00:45:33;;;;;;;7.32;0.77;;;2.10;99.90;;;;;;5004351;28;20045;-74
2023/12/07 00:47:58;;;;;;;1.77;1.38;;;2.10;99.90;;;;;;5030988;28;20033;-74
2023/12/07 00:50:24;;;;;;;1.80;1.10;;;2.10;99.90;;;;;;5029512;28;20088;-74
2023/12/07 00:52:50;;;;;;;1.33;1.10;;;2.10;99.90;;;;;;5023195;28;20054;-74
2023/12/07 00:55:16;;;;;;;2.42;1.80;;;2.10;99.90;;;;;;5007652;28;20058;-74
2023/12/07 00:57:41;;;;;;;2.40;1.45;;;2.10;99.90;;;;;;5015681;28;20428;-74
2023/12/07 01:00:08;;;;;;;1.90;1.08;;;2.20;99.90;;;;;;5026119;28;20323;-74
2023/12/07 01:02:34;;;;;;;2.47;1.23;;;2.20;99.90;;;;;;5021618;28;20088;-74
2023/12/07 01:05:00;;;;;;;1.67;1.30;;;2.20;99.90;;;;;;5022216;28;20038;-74
2023/12/07 01:07:26;;;;;;;1.90;1.30;;;2.20;99.90;;;;;;5027427;28;20129;-74
2023/12/07 01:09:52;;;;;;;1.58;1.20;;;2.20;99.90;;;;;;5022308;28;20460;-74
2023/12/07 01:12:17;;;;;;;2.72;1.65;;;2.20;99.90;;;;;;5009394;28;20029;-74
2023/12/07 01:14:43;;;;;;;1.70;1.13;;;2.30;99.90;;;;;;5026255;28;20091;-74
2023/12/07 01:17:09;;;;;;;1.58;1.15;;;2.30;99.90;;;;;;5005445;28;20105;-74
2023/12/07 01:19:35;;;;;;;2.47;1.02;;;2.30;99.90;;;;;;5003427;28;20041;-74
2023/12/07 01:22:00;;;;;;;0.70;0.70;;;2.30;99.90;;;;;;5006764;28;20061;-74
2023/12/07 01:24:26;;;;;;;5.65;1.88;;;2.30;99.90;;;;;;5022807;28;20520;-74
2023/12/07 01:26:52;;;;;;;2.17;1.98;;;2.20;99.90;;;;;;5008219;28;20076;-74
2023/12/07 01:29:18;;;;;;;3.70;2.05;;;2.30;99.90;;;;;;5017736;28;20423;-74
2023/12/07 01:31:44;;;;;;;2.53;1.42;;;2.30;99.90;;;;;;5017957;28;20042;-74
2023/12/07 01:34:10;;;;;;;3.97;1.70;;;2.20;99.90;;;;;;5021194;28;20424;-75
2023/12/07 01:36:36;;;;;;;1.08;0.93;;;2.30;99.90;;;;;;5022851;28;20034;-74
2023/12/07 01:39:02;;;;;;;3.17;2.38;;;2.30;99.90;;;;;;5028652;28;20041;-74
2023/12/07 01:41:28;;;;;;;2.08;1.83;;;2.30;99.90;;;;;;5026666;28;20049;-74
2023/12/07 01:43:54;;;;;;;1.27;1.02;;;2.30;99.90;;;;;;5021585;28;20402;-74
2023/12/07 01:46:20;;;;;;;1.67;1.10;;;2.30;99.90;;;;;;5017207;28;20056;-74
2023/12/07 01:48:49;;;;;;;2.13;1.40;;;2.30;99.90;;;;;;5018093;28;20080;-74
2023/12/07 01:51:16;;;;;;;2.47;1.52;;;2.20;99.90;;;;;;5007552;28;20038;-74
2023/12/07 01:53:43;;;;;;;1.33;0.93;;;2.30;99.90;;;;;;5021100;28;20439;-74
2023/12/07 01:56:10;;;;;;;3.08;1.40;;;2.30;99.90;;;;;;5019379;28;20049;-74
2023/12/07 01:58:36;;;;;;;2.30;1.58;;;2.30;99.90;;;;;;5012310;28;20034;-74
2023/12/07 02:01:03;;;;;;;2.08;1.60;;;2.30;99.90;;;;;;5024974;28;20126;-74
2023/12/07 02:03:31;;;;;;;2.20;1.55;;;2.30;99.90;;;;;;5026638;28;20037;-74
2023/12/07 02:05:58;;;;;;;2.45;1.75;;;2.30;99.90;;;;;;5024064;28;20039;-74
2023/12/07 02:08:24;;;;;;;3.10;1.73;;;2.30;99.90;;;;;;5024241;28;20071;-74
2023/12/07 02:10:49;;;;;;;2.40;1.70;;;2.30;99.90;;;;;;5018709;28;20046;-74
2023/12/07 02:13:15;;;;;;;1.35;1.05;;;2.30;99.90;;;;;;5008465;28;20037;-74
2023/12/07 02:15:41;;;;;;;2.67;2.00;;;2.30;99.90;;;;;;5017974;28;20030;-74
2023/12/07 02:18:22;;;;;;;2.40;1.60;;;2.20;99.90;;;;;;5021578;28;20080;-74
2023/12/07 02:20:58;;;;;;;3.70;2.17;;;2.20;99.90;;;;;;5016922;28;20038;-74
2023/12/07 02:23:25;;;;;;;3.53;1.65;;;2.10;99.90;;;;;;5024189;28;20521;-74
2023/12/07 02:25:57;;;;;;;2.50;1.17;;;2.00;99.90;;;;;;5026033;28;20108;-74
2023/12/07 02:28:22;;;;;;;2.20;1.27;;;2.00;99.90;;;;;;5024186;28;20473;-74
2023/12/07 02:30:48;;;;;;;2.15;1.95;;;1.90;99.90;;;;;;5033632;28;20096;-74
2023/12/07 02:33:15;;;;;;;1.90;1.42;;;1.90;99.90;;;;;;5023493;28;20072;-74
2023/12/07 02:35:41;;;;;;;1.15;1.00;;;1.80;99.90;;;;;;5028578;28;20682;-74
2023/12/07 02:38:09;;;;;;;10.43;2.47;;;1.80;99.90;;;;;;5021167;28;20045;-73
2023/12/07 02:40:35;;;;;;;3.30;1.08;;;1.70;99.90;;;;;;5019407;28;20397;-73
2023/12/07 02:43:03;;;;;;;1.58;1.23;;;1.60;99.90;;;;;;5024878;28;20041;-73
2023/12/07 02:45:29;;;;;;;3.50;1.20;;;1.60;99.90;;;;;;5028362;28;20740;-73
2023/12/07 02:47:54;;;;;;;1.13;0.93;;;1.50;99.90;;;;;;5020013;28;20046;-73
2023/12/07 02:50:20;;;;;;;1.85;1.40;;;1.50;99.90;;;;;;5023970;28;20516;-73
2023/12/07 02:52:46;;;;;;;1.60;1.15;;;1.40;99.90;;;;;;5016840;28;20049;-73
2023/12/07 02:55:13;;;;;;;2.28;1.50;;;1.40;99.90;;;;;;5020195;28;20470;-73
2023/12/07 02:57:39;;;;;;;2.28;1.50;;;1.30;99.90;;;;;;5022544;28;20061;-73
2023/12/07 03:00:06;;;;;;;2.30;0.98;;;1.30;99.90;;;;;;5019341;28;20072;-73
2023/12/07 03:02:36;;;;;;;3.30;2.45;;;1.20;99.90;;;;;;5023120;28;20041;-73
2023/12/07 03:05:02;;;;;;;3.15;1.58;;;1.20;99.90;;;;;;5022364;28;20571;-73
2023/12/07 03:07:27;;;;;;;1.63;1.08;;;1.20;99.90;;;;;;5018923;28;20457;-73
2023/12/07 03:09:53;;;;;;;3.63;2.40;;;1.10;99.90;;;;;;5021067;28;20051;-73
2023/12/07 03:12:19;;;;;;;2.30;1.73;;;1.10;99.90;;;;;;5016350;28;20129;-73
2023/12/07 03:14:44;;;;;;;2.65;2.10;;;1.00;99.90;;;;;;5037702;28;20099;-72
2023/12/07 03:17:10;;;;;;;2.25;1.38;;;1.00;99.90;;;;;;5004214;28;20124;-72
2023/12/07 03:19:40;;;;;;;1.52;1.02;;;0.90;99.90;;;;;;5023063;28;20049;-73
2023/12/07 03:22:09;;;;;;;2.15;1.67;;;0.90;99.90;;;;;;5014888;28;20057;-72
2023/12/07 03:24:36;;;;;;;1.20;0.95;;;0.90;99.90;;;;;;5021716;28;20029;-72
2023/12/07 03:27:02;;;;;;;1.65;1.30;;;0.80;99.90;;;;;;5020084;28;20057;-72
2023/12/07 03:29:27;;;;;;;3.05;1.92;;;0.90;99.90;;;;;;5021219;28;20045;-72
2023/12/07 03:31:53;;;;;;;2.92;1.83;;;0.80;99.90;;;;;;5019422;28;20136;-72
2023/12/07 03:34:19;;;;;;;1.92;1.35;;;0.80;99.90;;;;;;5019241;28;20038;-72
2023/12/07 03:36:48;;;;;;;3.03;1.75;;;0.80;99.90;;;;;;5024616;28;20490;-71
2023/12/07 03:39:15;;;;;;;3.70;2.05;;;0.80;99.90;;;;;;5021124;28;20498;-71
2023/12/07 03:41:41;;;;;;;1.80;1.70;;;0.80;99.90;;;;;;5025134;28;20080;-71
2023/12/07 03:44:06;;;;;;;2.13;1.42;;;0.80;99.90;;;;;;5015307;28;20080;-71
2023/12/07 03:46:32;;;;;;;1.33;1.00;;;0.70;99.90;;;;;;5022108;28;20498;-72
2023/12/07 03:48:59;;;;;;;4.60;2.30;;;0.70;99.90;;;;;;5023528;28;20417;-71
2023/12/07 03:51:26;;;;;;;1.90;1.40;;;0.70;99.90;;;;;;5019243;28;20045;-71
2023/12/07 03:53:52;;;;;;;4.53;1.40;;;0.60;99.90;;;;;;5010233;28;20045;-71
2023/12/07 03:56:29;;;;;;;3.88;2.03;;;0.60;99.90;;;;;;5029161;28;20264;-71
2023/12/07 03:58:55;;;;;;;2.53;1.38;;;0.60;99.90;;;;;;5021175;28;20072;-71
2023/12/07 04:01:25;;;;;;;3.92;2.25;;;0.60;99.90;;;;;;5021045;28;20045;-71
2023/12/07 04:03:52;;;;;;;11.95;1.60;;;0.60;99.90;;;;;;5021110;28;20448;-71
2023/12/07 04:06:18;;;;;;;3.97;2.58;;;0.60;99.90;;;;;;5027069;28;20033;-71
2023/12/07 04:08:44;;;;;;;7.80;2.55;;;0.60;99.90;;;;;;5022992;28;20460;-71
2023/12/07 04:11:10;;;;;;;4.65;3.55;;;0.60;99.90;;;;;;5026502;28;20541;-71
2023/12/07 04:13:36;;;;;;;3.53;2.45;;;0.70;99.90;;;;;;5027368;28;20125;-71
2023/12/07 04:16:03;;;;;;;3.85;2.30;;;0.70;99.90;;;;;;5026011;28;20037;-71
2023/12/07 04:18:28;;;;;;;2.72;2.33;;;0.70;99.90;;;;;;5023401;28;20042;-71
2023/12/07 04:20:54;;;;;;;3.25;2.22;;;0.70;99.90;;;;;;5018242;28;20060;-71
2023/12/07 04:23:20;;;;;;;5.25;2.25;;;0.70;99.90;;;;;;5023516;28;20040;-71
2023/12/07 04:25:46;;;;;;;5.90;3.10;;;0.70;99.90;;;;;;5023034;28;20040;-71
2023/12/07 04:28:11;;;;;;;3.40;2.67;;;0.70;99.90;;;;;;5025233;28;20033;-71
2023/12/07 04:30:37;;;;;;;3.80;2.65;;;0.70;99.90;;;;;;5021585;28;20441;-71
2023/12/07 04:33:03;;;;;;;3.13;2.47;;;0.70;99.90;;;;;;5028363;28;20537;-71
2023/12/07 04:35:29;;;;;;;2.08;1.52;;;0.70;99.90;;;;;;5028332;28;20050;-71
2023/12/07 04:37:55;;;;;;;4.40;2.97;;;0.70;99.90;;;;;;5022384;28;20497;-71
2023/12/07 04:40:21;;;;;;;2.25;1.75;;;0.70;99.90;;;;;;5029284;28;20080;-71
2023/12/07 04:42:46;;;;;;;2.58;1.65;;;0.70;99.90;;;;;;5023192;28;20044;-71
2023/12/07 04:45:12;;;;;;;3.28;2.40;;;0.60;99.90;;;;;;5022335;28;20461;-71
2023/12/07 04:47:38;;;;;;;2.50;2.10;;;0.70;99.90;;;;;;5016974;28;20041;-71
2023/12/07 04:50:04;;;;;;;4.97;2.47;;;0.60;99.90;;;;;;5031207;28;20088;-71
2023/12/07 04:52:30;;;;;;;3.63;1.45;;;0.60;99.90;;;;;;5023005;28;20114;-71
2023/12/07 04:54:55;;;;;;;11.23;2.95;;;0.70;99.90;;;;;;5006525;28;20136;-71
2023/12/07 04:57:21;;;;;;;3.38;2.63;;;0.70;99.90;;;;;;5021880;28;20168;-71
2023/12/07 04:59:47;;;;;;;7.55;2.90;;;0.70;99.90;;;;;;5027171;28;20410;-71
2023/12/07 05:02:16;;;;;;;3.40;1.77;;;0.70;99.90;;;;;;5024937;28;20188;-71
2023/12/07 05:04:43;;;;;;;8.45;2.03;;;0.70;99.90;;;;;;5021017;28;20033;-71
2023/12/07 05:07:09;;;;;;;2.78;1.30;;;0.60;99.90;;;;;;5017837;28;20056;-71
2023/12/07 05:09:34;;;;;;;3.17;2.13;;;0.60;99.90;;;;;;5027710;28;20536;-71
2023/12/07 05:12:00;;;;;;;4.43;2.47;;;0.60;99.90;;;;;;5023885;28;20053;-71
2023/12/07 05:14:26;;;;;;;2.22;1.50;;;0.60;99.90;;;;;;5021603;28;20049;-71
2023/12/07 05:16:55;;;;;;;4.85;2.38;;;0.60;99.90;;;;;;5011786;28;20030;-71
2023/12/07 05:19:22;;;;;;;1.92;1.30;;;0.60;99.90;;;;;;5021723;28;20046;-71
2023/12/07 05:21:48;;;;;;;3.75;2.90;;;0.60;99.90;;;;;;5017616;28;20439;-71
2023/12/07 05:24:14;;;;;;;4.15;2.42;;;0.60;99.90;;;;;;5019629;28;20052;-71
2023/12/07 05:26:43;;;;;;;4.72;2.58;;;0.60;99.90;;;;;;5017734;28;20128;-70
2023/12/07 05:29:09;;;;;;;1.75;1.42;;;0.60;99.90;;;;;;5007351;28;20091;-71
2023/12/07 05:31:36;;;;;;;2.10;1.13;;;0.60;99.90;;;;;;5020435;28;20034;-71
2023/12/07 05:34:02;;;;;;;8.00;2.22;;;0.60;99.90;;;;;;5025327;28;20045;-71
2023/12/07 05:36:28;;;;;;;2.85;1.60;;;0.60;99.90;;;;;;5008256;28;20041;-71
2023/12/07 05:38:55;;;;;;;2.35;1.73;;;0.60;99.90;;;;;;5022686;28;20033;-71
2023/12/07 05:41:20;;;;;;;2.22;2.03;;;0.60;99.90;;;;;;5022131;28;20051;-71
2023/12/07 05:43:46;;;;;;;1.42;1.23;;;0.50;99.90;;;;;;5011049;28;20095;-71
2023/12/07 05:46:12;;;;;;;2.33;2.03;;;0.50;99.90;;;;;;5007228;28;20069;-70
2023/12/07 05:48:40;;;;;;;2.78;1.73;;;0.50;99.90;;;;;;5014691;28;20041;-71
2023/12/07 05:51:11;;;;;;;3.55;2.22;;;0.50;99.90;;;;;;5019052;28;20042;-71
2023/12/07 05:53:36;;;;;;;2.65;1.63;;;0.50;99.90;;;;;;5024043;28;20187;-71
2023/12/07 05:56:02;;;;;;;6.43;2.55;;;0.50;99.90;;;;;;5015594;28;20041;-71
2023/12/07 05:58:28;;;;;;;5.00;2.67;;;0.40;99.90;;;;;;5021337;28;20041;-71
2023/12/07 06:00:54;;;;;;;4.05;2.53;;;0.40;99.90;;;;;;5027621;28;20037;-71
2023/12/07 06:03:22;;;;;;;3.17;2.13;;;0.40;99.90;;;;;;5020580;28;20077;-71
2023/12/07 06:05:49;;;;;;;3.03;2.53;;;0.40;99.90;;;;;;5019633;28;20033;-71
2023/12/07 06:08:14;;;;;;;5.05;3.20;;;0.40;99.90;;;;;;5019030;28;20042;-71
2023/12/07 06:10:40;;;;;;;5.88;3.40;;;0.30;99.90;;;;;;5021692;28;20124;-71
2023/12/07 06:13:06;;;;;;;5.32;2.38;;;0.30;99.90;;;;;;5024643;28;20505;-71
2023/12/07 06:15:33;;;;;;;2.78;2.35;;;0.30;99.90;;;;;;5016880;28;20128;-71
2023/12/07 06:17:58;;;;;;;4.20;2.97;;;0.30;99.90;;;;;;5024466;28;20042;-71
2023/12/07 06:20:24;;;;;;;4.45;2.17;;;0.20;99.90;;;;;;5021616;28;20123;-71
2023/12/07 06:22:50;;;;;;;3.08;1.88;;;0.20;99.90;;;;;;5019624;28;20037;-71
2023/12/07 06:25:16;;;;;;;3.47;2.42;;;0.20;99.90;;;;;;5019206;28;20234;-71
2023/12/07 06:27:42;;;;;;;3.22;2.15;;;0.20;99.90;;;;;;5027184;28;20056;-72
2023/12/07 06:30:08;;;;;;;4.78;2.78;;;0.20;99.90;;;;;;5027978;28;20095;-71
2023/12/07 06:32:33;;;;;;;3.13;2.63;;;0.20;99.90;;;;;;5024370;28;20046;-72
2023/12/07 06:35:00;;;;;;;7.53;2.97;;;0.00;99.90;;;;;;5018859;28;20037;-72
2023/12/07 06:37:26;;;;;;;3.33;1.55;;;0.10;99.90;;;;;;5028225;28;20046;-72
2023/12/07 06:39:52;;;;;;;4.38;2.63;;;0.10;99.90;;;;;;5024064;28;20034;-71
2023/12/07 06:42:18;;;;;;;34.47;20.90;;;0.10;99.90;;;;;;5015239;28;20048;-71
2023/12/07 06:44:48;;;;;;;6.47;4.68;;;0.00;99.90;;;;;;5020823;28;20045;-72
2023/12/07 06:47:14;;;;;;;5.57;3.42;;;0.00;99.90;;;;;;5017283;28;20093;-71
2023/12/07 06:49:39;;;;;;;3.83;2.67;;;0.00;99.90;;;;;;5017502;28;20102;-71
2023/12/07 06:52:05;;;;;;;4.63;3.35;;;0.00;99.90;;;;;;5015537;28;20482;-71
2023/12/07 06:54:31;;;;;;;4.38;2.67;;;0.00;99.90;;;;;;5025944;28;20139;-71
2023/12/07 06:56:57;;;;;;;7.22;3.88;;;0.00;99.90;;;;;;5043109;28;20397;-71
2023/12/07 06:59:22;;;;;;;3.90;2.70;;;0.00;99.90;;;;;;5008557;28;20600;-72
2023/12/07 07:01:48;;;;;;;6.03;3.15;;;-0.10;99.90;;;;;;5021181;28;20041;-71
2023/12/07 07:04:14;;;;;;;6.90;4.82;;;-0.10;99.90;;;;;;5037626;28;20491;-71
2023/12/07 07:06:42;;;;;;;3.33;2.05;;;-0.10;99.90;;;;;;5022340;28;20132;-70
2023/12/07 07:09:07;;;;;;;5.78;3.25;;;-0.10;99.90;;;;;;5022867;28;20545;-70
2023/12/07 07:11:34;;;;;;;4.78;3.40;;;-0.20;99.90;;;;;;5020302;28;20032;-71
2023/12/07 07:14:00;;;;;;;12.85;4.53;;;-0.20;99.90;;;;;;5011484;28;20052;-71
2023/12/07 07:16:26;;;;;;;3.25;2.53;;;-0.10;99.90;;;;;;5026124;28;20045;-69
2023/12/07 07:18:51;;;;;;;3.35;2.58;;;-0.20;99.90;;;;;;5023199;28;20090;-70
2023/12/07 07:21:19;;;;;;;4.80;3.00;;;-0.20;99.90;;;;;;5020262;28;20041;-70
2023/12/07 07:23:45;;;;;;;4.43;3.85;;;-0.20;99.90;;;;;;5021292;28;20414;-70
2023/12/07 07:26:11;;;;;;;4.18;2.65;;;-0.20;99.90;;;;;;5020145;28;20037;-70
2023/12/07 07:28:37;;;;;;;4.13;2.85;;;-0.20;99.90;;;;;;5008512;28;20041;-70
2023/12/07 07:31:03;;;;;;;4.05;3.25;;;-0.20;99.90;;;;;;5020740;28;20037;-70
2023/12/07 07:33:28;;;;;;;4.82;2.45;;;-0.20;99.90;;;;;;5022943;28;20049;-70
2023/12/07 07:35:55;;;;;;;7.05;3.38;;;-0.20;99.90;;;;;;5017992;28;20107;-70
2023/12/07 07:38:21;;;;;;;9.55;2.83;;;-0.30;99.90;;;;;;5022938;28;20041;-70
2023/12/07 07:40:48;;;;;;;4.22;2.90;;;-0.20;99.90;;;;;;5020009;28;20512;-70
2023/12/07 07:43:14;;;;;;;2.90;2.30;;;-0.20;99.90;;;;;;5028594;28;20048;-70
2023/12/07 07:45:40;;;;;;;3.65;2.50;;;-0.20;99.90;;;;;;5023909;28;20045;-70
2023/12/07 07:48:05;;;;;;;4.28;3.50;;;-0.20;99.90;;;;;;5017034;28;20041;-70
2023/12/07 07:50:31;;;;;;;3.60;2.90;;;-0.30;99.90;;;;;;5019404;28;20045;-70
2023/12/07 07:52:57;;;;;;;7.28;2.88;;;-0.20;99.90;;;;;;5023545;28;20394;-71
2023/12/07 07:55:23;;;;;;;2.63;2.38;;;-0.20;99.90;;;;;;5027052;28;20037;-71
2023/12/07 07:57:48;;;;;;;2.85;2.20;;;-0.20;99.90;;;;;;5011368;28;20036;-71
2023/12/07 08:00:14;;;;;;;6.25;3.97;;;-0.20;99.90;;;;;;5021027;28;20036;-71
2023/12/07 08:02:40;;;;;;;3.13;2.22;;;-0.20;99.90;;;;;;5019740;28;20669;-71
2023/12/07 08:05:06;;;;;;;2.40;1.75;;;-0.20;99.90;;;;;;5022213;28;20416;-71
2023/12/07 08:07:34;;;;;;;3.55;2.28;;;-0.20;99.90;;;;;;5035167;28;20037;-72
2023/12/07 08:10:00;;;;;;;2.75;2.08;;;-0.10;99.90;;;;;;5035078;28;20138;-72
2023/12/07 08:12:26;;;;;;;3.78;2.85;;;-0.10;99.90;;;;;;5014065;28;20068;-71
2023/12/07 08:14:51;;;;;;;2.78;2.00;;;0.00;99.90;;;;;;5009353;28;20038;-71
2023/12/07 08:17:19;;;;;;;3.80;2.50;;;0.00;99.90;;;;;;5029399;28;20128;-72
2023/12/07 08:19:44;;;;;;;5.65;3.78;;;0.10;99.90;;;;;;5023588;28;20073;-71
2023/12/07 08:22:10;;;;;;;2.40;1.75;;;0.20;99.90;;;;;;5026034;28;20146;-71
2023/12/07 08:24:39;;;;;;;6.03;4.30;;;0.20;99.90;;;;;;5039804;28;20081;-72
2023/12/07 08:27:05;;;;;;;2.13;1.67;;;0.30;99.90;;;;;;5023988;28;20048;-72
2023/12/07 08:29:30;;;;;;;12.45;2.95;;;0.40;99.90;;;;;;5027202;28;20043;-72
2023/12/07 08:31:56;;;;;;;4.78;3.47;;;0.40;99.90;;;;;;5023560;28;20048;-72
2023/12/07 08:34:22;;;;;;;7.03;4.30;;;0.50;99.90;;;;;;5035540;28;20037;-72
2023/12/07 08:36:47;;;;;;;3.83;2.75;;;0.50;99.90;;;;;;5021028;28;20045;-72
2023/12/07 08:39:13;;;;;;;5.50;2.80;;;0.60;99.90;;;;;;5027906;28;20124;-72
2023/12/07 08:41:39;;;;;;;4.75;3.40;;;0.70;99.90;;;;;;5023308;28;20344;-72
2023/12/07 08:44:05;;;;;;;5.53;4.00;;;0.70;99.90;;;;;;5019643;28;20124;-72
2023/12/07 08:46:30;;;;;;;3.65;2.28;;;0.80;99.90;;;;;;5022673;28;20128;-72
2023/12/07 08:48:56;;;;;;;2.88;2.60;;;0.80;99.90;;;;;;5024028;28;20045;-72
2023/12/07 08:51:23;;;;;;;6.07;3.83;;;0.90;99.90;;;;;;5014539;28;20049;-72
2023/12/07 08:53:51;;;;;;;3.03;2.42;;;1.00;99.90;;;;;;5026191;28;20084;-72
2023/12/07 08:56:17;;;;;;;3.53;3.22;;;1.00;99.90;;;;;;5020820;28;20049;-72
2023/12/07 08:58:44;;;;;;;5.05;2.85;;;0.90;99.90;;;;;;5039529;28;20445;-72
2023/12/07 09:01:11;;;;;;;9.65;4.28;;;1.00;99.90;;;;;;5024963;28;20041;-72
2023/12/07 09:03:37;;;;;;;7.72;3.03;;;1.00;99.90;;;;;;5021343;28;20043;-72
2023/12/07 09:06:05;;;;;;;4.13;3.17;;;1.10;99.90;;;;;;5024561;28;20041;-72
2023/12/07 09:08:30;;;;;;;4.20;2.90;;;1.10;99.90;;;;;;5024680;28;20370;-72
2023/12/07 09:10:56;;;;;;;3.25;2.58;;;1.20;99.90;;;;;;5025228;28;20071;-72
2023/12/07 09:13:22;;;;;;;5.22;3.35;;;1.30;99.90;;;;;;5040768;28;20124;-72
2023/12/07 09:15:48;;;;;;;6.70;4.60;;;1.30;99.90;;;;;;5042053;28;20032;-72
2023/12/07 09:18:13;;;;;;;6.10;3.33;;;1.40;99.90;;;;;;5031255;28;20059;-72
2023/12/07 09:20:45;;;;;;;4.25;3.22;;;1.50;99.90;;;;;;5046930;28;20033;-71
2023/12/07 09:23:12;;;;;;;6.80;2.92;;;1.50;99.90;;;;;;5032002;28;20048;-72
2023/12/07 09:25:39;;;;;;;4.95;3.13;;;1.60;99.90;;;;;;5031034;28;20549;-73
2023/12/07 09:28:05;;;;;;;6.35;4.07;;;1.60;99.90;;;;;;5024097;28;20045;-72
2023/12/07 09:30:30;;;;;;;6.13;4.38;;;1.60;99.90;;;;;;5026618;28;20116;-73
2023/12/07 09:32:56;;;;;;;4.82;3.28;;;1.60;99.90;;;;;;5044942;28;20139;-73
2023/12/07 09:35:22;;;;;;;2.28;1.77;;;1.60;99.90;;;;;;5023669;28;20033;-73
2023/12/07 09:37:51;;;;;;;4.00;2.22;;;1.60;99.90;;;;;;5029343;28;20064;-73
2023/12/07 09:40:17;;;;;;;4.18;2.72;;;1.60;99.90;;;;;;5021882;28;20038;-74
2023/12/07 09:42:44;;;;;;;4.75;3.35;;;1.50;99.90;;;;;;5030140;28;20041;-74
2023/12/07 09:45:10;;;;;;;4.82;3.25;;;1.50;99.90;;;;;;5025177;28;20080;-74
2023/12/07 09:47:38;;;;;;;7.25;2.83;;;1.50;99.90;;;;;;5026276;28;20084;-74
2023/12/07 09:50:07;;;;;;;4.07;2.67;;;1.60;99.90;;;;;;5027463;28;20501;-74
2023/12/07 09:52:32;;;;;;;6.30;4.45;;;1.50;99.90;;;;;;5023719;28;20047;-74
2023/12/07 09:55:00;;;;;;;2.90;2.33;;;1.50;99.90;;;;;;5020897;28;20041;-74
2023/12/07 09:57:26;;;;;;;3.85;2.97;;;1.50;99.90;;;;;;5026152;28;20037;-74
2023/12/07 09:59:52;;;;;;;11.10;4.50;;;1.50;99.90;;;;;;5025842;28;20047;-74
2023/12/07 10:02:17;;;;;;;4.57;3.08;;;1.50;99.90;;;;;;5021140;28;20087;-74
2023/12/07 10:04:43;;;;;;;11.57;2.72;;;1.50;99.90;;;;;;5022891;28;20053;-74
2023/12/07 10:07:09;;;;;;;38.80;3.97;;;1.40;99.90;;;;;;5028192;28;20119;-73
2023/12/07 10:09:40;;;;;;;11.75;2.38;;;1.30;99.90;;;;;;5023745;28;20078;-73
2023/12/07 10:12:06;;;;;;;3.13;2.05;;;1.30;99.90;;;;;;5021970;28;20451;-73
2023/12/07 10:14:33;;;;;;;4.28;2.45;;;1.30;99.90;;;;;;5022862;28;20098;-74
2023/12/07 10:17:04;;;;;;;25.13;3.05;;;1.30;99.90;;;;;;5020551;28;20052;-73
2023/12/07 10:19:29;;;;;;;2.90;2.60;;;1.30;99.90;;;;;;5023739;28;20052;-73
2023/12/07 10:21:55;;;;;;;9.00;1.90;;;1.30;99.90;;;;;;5023958;28;20037;-73
2023/12/07 10:24:22;;;;;;;4.82;2.33;;;1.30;99.90;;;;;;5025921;28;20049;-73
2023/12/07 10:26:50;;;;;;;2.67;2.03;;;1.30;99.90;;;;;;5030461;28;20477;-73
2023/12/07 10:29:19;;;;;;;2.47;1.70;;;1.30;99.90;;;;;;5023010;28;20038;-73
2023/12/07 10:31:46;;;;;;;5.05;3.00;;;1.30;99.90;;;;;;5024057;28;20041;-73
2023/12/07 10:34:13;;;;;;;3.70;2.40;;;1.30;99.90;;;;;;5039379;28;20128;-73
2023/12/07 10:36:38;;;;;;;3.55;1.95;;;1.30;99.90;;;;;;5027589;28;20044;-73
2023/12/07 10:39:07;;;;;;;3.92;2.40;;;1.30;99.90;;;;;;5020986;28;20033;-73
2023/12/07 10:41:34;;;;;;;3.97;2.22;;;1.30;99.90;;;;;;5026609;28;20080;-73
2023/12/07 10:44:03;;;;;;;3.40;1.65;;;1.30;99.90;;;;;;5019988;28;20048;-72
2023/12/07 10:46:32;;;;;;;2.50;1.92;;;1.30;99.90;;;;;;5021835;28;20423;-72
2023/12/07 10:49:04;;;;;;;4.10;2.47;;;1.30;99.90;;;;;;5016761;28;20064;-72
2023/12/07 10:51:41;;;;;;;3.88;2.58;;;1.40;99.90;;;;;;5025538;28;20071;-71
2023/12/07 10:54:08;;;;;;;4.15;3.15;;;1.30;99.90;;;;;;5025405;28;20076;-72
2023/12/07 10:56:45;;;;;;;2.22;1.42;;;1.30;99.90;;;;;;5020433;28;20037;-71
2023/12/07 10:59:13;;;;;;;17.25;2.45;;;1.30;99.90;;;;;;5031496;28;20033;-71
2023/12/07 11:01:40;;;;;;;1.58;1.23;;;1.30;99.90;;;;;;5027550;28;20040;-71
2023/12/07 11:04:06;;;;;;;2.03;1.77;;;1.40;99.90;;;;;;5010864;28;20127;-71
2023/12/07 11:06:36;;;;;;;3.40;1.90;;;1.40;99.90;;;;;;5023938;28;20045;-71
2023/12/07 11:09:07;;;;;;;2.38;1.63;;;1.40;99.90;;;;;;5030245;28;20053;-71
2023/12/07 11:11:35;;;;;;;2.67;1.95;;;1.50;99.90;;;;;;5012247;28;20064;-71
2023/12/07 11:14:06;;;;;;;1.75;1.40;;;1.50;99.90;;;;;;5025022;28;20048;-71
2023/12/07 11:16:35;;;;;;;5.90;2.33;;;1.50;99.90;;;;;;5026824;28;20044;-71
2023/12/07 11:19:01;;;;;;;17.63;2.88;;;1.60;99.90;;;;;;5022570;28;20045;-71
2023/12/07 11:21:27;;;;;;;7.53;2.42;;;1.60;99.90;;;;;;5015326;28;20045;-71
2023/12/07 11:23:56;;;;;;;3.80;1.70;;;1.50;99.90;;;;;;5014030;28;20498;-71
2023/12/07 11:26:26;;;;;;;3.95;3.10;;;1.60;99.90;;;;;;5002841;28;20409;-70
2023/12/07 11:28:54;;;;;;;3.08;2.30;;;1.60;99.90;;;;;;5005810;28;20042;-70
2023/12/07 11:31:20;;;;;;;11.68;2.13;;;1.60;99.90;;;;;;4996266;28;20135;-70
2023/12/07 11:33:47;;;;;;;2.88;1.67;;;1.60;99.90;;;;;;5001477;28;20084;-70
2023/12/07 11:36:14;;;;;;;4.50;3.15;;;1.60;99.90;;;;;;5004359;28;20108;-70
2023/12/07 11:39:02;;;;;;;3.30;2.65;;;1.60;99.90;;;;;;5004449;28;20095;-71
2023/12/07 11:41:40;;;;;;;3.53;2.35;;;1.60;99.90;;;;;;5016437;28;20419;-70
2023/12/07 11:44:05;;;;;;;8.88;2.78;;;1.60;99.90;;;;;;4999806;28;20049;-70
2023/12/07 11:46:31;;;;;;;4.38;2.88;;;1.60;99.90;;;;;;5004627;28;20727;-69
2023/12/07 11:48:58;;;;;;;2.55;2.17;;;1.60;99.90;;;;;;5004003;28;20053;-70
2023/12/07 11:51:24;;;;;;;2.80;2.47;;;1.60;99.90;;;;;;5001014;28;20042;-70
2023/12/07 11:53:51;;;;;;;5.22;2.72;;;1.60;99.90;;;;;;5006121;28;20478;-70
2023/12/07 11:56:21;;;;;;;3.95;3.05;;;1.70;99.90;;;;;;4997368;28;20502;-70
2023/12/07 11:58:46;;;;;;;2.78;2.10;;;1.70;99.90;;;;;;5008571;28;20124;-70
2023/12/07 12:01:12;;;;;;;6.72;2.35;;;1.70;99.90;;;;;;5003056;28;20132;-70
2023/12/07 12:03:38;;;;;;;3.08;2.38;;;1.70;99.90;;;;;;5009339;28;20137;-70
2023/12/07 12:06:07;;;;;;;4.60;3.13;;;1.70;99.90;;;;;;5001315;28;20037;-70
2023/12/07 12:08:33;;;;;;;3.63;2.20;;;1.70;99.90;;;;;;5003191;28;20050;-69
2023/12/07 12:10:59;;;;;;;3.40;2.63;;;1.80;99.90;;;;;;5006803;28;20068;-70
2023/12/07 12:13:35;;;;;;;4.57;2.85;;;1.70;99.90;;;;;;5002891;28;20108;-69
2023/12/07 12:16:01;;;;;;;5.25;3.53;;;1.70;99.90;;;;;;5003933;28;20498;-70
2023/12/07 12:18:27;;;;;;;3.92;2.97;;;1.70;99.90;;;;;;5005310;28;20048;-70
2023/12/07 12:20:54;;;;;;;3.75;2.42;;;1.70;99.90;;;;;;5004333;28;20148;-70
2023/12/07 12:23:20;;;;;;;4.90;3.00;;;1.70;99.90;;;;;;5005959;28;20051;-69
2023/12/07 12:25:47;;;;;;;3.83;3.15;;;1.70;99.90;;;;;;4985565;28;20454;-69
2023/12/07 12:28:22;;;;;;;5.57;3.35;;;1.80;99.90;;;;;;5003231;28;20119;-69
2023/12/07 12:30:48;;;;;;;8.80;3.88;;;1.80;99.90;;;;;;5002686;28;20122;-69
2023/12/07 12:33:14;;;;;;;5.45;3.10;;;1.80;99.90;;;;;;5003860;28;20085;-69
2023/12/07 12:35:40;;;;;;;6.00;3.25;;;1.90;99.90;;;;;;5001442;28;20112;-69
2023/12/07 12:38:13;;;;;;;6.38;4.13;;;1.80;99.90;;;;;;4987395;28;20046;-69
2023/12/07 12:40:41;;;;;;;5.90;3.22;;;1.80;99.90;;;;;;5021112;28;20137;-69
2023/12/07 12:43:07;;;;;;;4.10;2.85;;;1.90;99.90;;;;;;5003951;28;20550;-69
2023/12/07 12:45:33;;;;;;;4.10;3.38;;;1.90;99.90;;;;;;5006718;28;20077;-69
2023/12/07 12:47:59;;;;;;;4.00;3.60;;;1.80;99.90;;;;;;5002890;28;20063;-69
2023/12/07 12:50:37;;;;;;;4.75;3.10;;;1.80;99.90;;;;;;5003616;28;20493;-69
2023/12/07 12:53:08;;;;;;;3.33;2.47;;;1.90;99.90;;;;;;5015737;28;20053;-69